Time;durP1;ratioP1;P1;durP2;ratioP2;P2;SDS_P1;SDS_P2;PMS_P1;PMS_P2;Temp;Humidity;BMP_temperature;BMP_pressure;BME280_temperature;BME280_humidity;BME280_pressure;Samples;Min_cycle;Max_cycle;Signal;HPM_P1;HPM_P2
2022/01/30 00:00:31;;;;;;;;;;;;;;;;;;;;;
2022/01/30 00:04:01;;;;;;;8.50;3.10;;;;;;;6.41;66.88;99094.71;107762;1284;22976;-78
2022/01/30 00:14:01;;;;;;;9.50;2.90;;;;;;;6.39;65.03;99131.41;107673;1287;22126;-78
2022/01/30 00:17:22;;;;;;;13.70;4.90;;;;;;;6.37;64.54;99155.13;107627;1287;22025;-78
2022/01/30 00:21:29;;;;;;;15.20;4.60;;;;;;;6.18;64.50;99154.23;107962;1289;23022;-78
2022/01/30 00:27:43;;;;;;;;;;;;;;;;;;;;;
2022/01/30 00:30:35;;;;;;;23.60;5.20;;;;;;;5.39;66.69;99146.98;107748;1287;22287;-78
2022/01/30 00:34:02;;;;;;;;;;;;;;;;;;;;;
2022/01/30 00:37:50;;;;;;;;;;;;;;;;;;;;;
2022/01/30 00:41:12;;;;;;;5.50;2.40;;;;;;;4.78;68.29;99191.66;107025;1290;22252;-77
2022/01/30 00:43:58;;;;;;;;;;;;;;;;;;;;;
2022/01/30 00:46:46;;;;;;;7.40;1.70;;;;;;;4.23;70.13;99165.19;107322;1290;23028;-78
2022/01/30 00:49:36;;;;;;;7.60;3.20;;;;;;;4.15;70.96;99166.58;107748;1285;22181;-78
2022/01/30 00:52:53;;;;;;;;;;;;;;;;;;;;;
2022/01/30 00:56:24;;;;;;;8.60;2.50;;;;;;;4.05;72.24;99173.52;107990;1282;22006;-78
2022/01/30 00:59:28;;;;;;;16.70;4.20;;;;;;;4.05;72.62;99153.27;107610;1288;22802;-78
2022/01/30 01:02:19;;;;;;;11.10;3.80;;;;;;;4.11;72.95;99145.19;107527;1288;22004;-78
2022/01/30 01:05:24;;;;;;;;;;;;;;;;;;;;;
2022/01/30 01:08:45;;;;;;;;;;;;;;;;;;;;;
2022/01/30 01:25:59;;;;;;;;;;;;;;;;;;;;;
2022/01/30 01:28:52;;;;;;;19.10;5.20;;;;;;;5.01;71.68;99102.08;107596;1288;23769;-78
2022/01/30 01:31:24;;;;;;;27.70;6.40;;;;;;;5.07;71.36;99098.94;107765;1287;22132;-78
2022/01/30 01:36:50;;;;;;;13.30;4.50;;;;;;;5.16;70.48;99090.52;107844;1287;24343;-77
2022/01/30 01:39:30;;;;;;;14.70;4.90;;;;;;;5.20;70.14;99086.38;107779;1287;23735;-78
2022/01/30 01:42:13;;;;;;;14.50;5.10;;;;;;;5.24;69.92;99076.17;107798;1286;22234;-79
2022/01/30 01:44:53;;;;;;;11.20;4.30;;;;;;;5.27;69.66;99073.58;107519;1289;23662;-79
2022/01/30 01:47:32;;;;;;;19.30;5.80;;;;;;;5.30;69.36;99064.61;107510;1289;23647;-78
2022/01/30 01:50:03;;;;;;;16.00;4.60;;;;;;;5.29;69.11;99070.55;107178;1291;22015;-79
2022/01/30 01:52:38;;;;;;;15.60;3.50;;;;;;;5.29;68.79;99091.77;107250;1286;23617;-79
2022/01/30 01:55:11;;;;;;;10.20;3.50;;;;;;;5.29;68.68;99108.98;107939;1285;23710;-78
2022/01/30 01:57:50;;;;;;;11.00;4.10;;;;;;;5.26;68.42;99092.23;108073;1284;22032;-79
2022/01/30 02:00:41;;;;;;;12.00;4.10;;;;;;;5.18;68.30;99075.98;108087;1283;22013;-78
2022/01/30 02:03:18;;;;;;;8.90;3.30;;;;;;;5.14;68.42;99065.41;107958;1282;23240;-79
2022/01/30 02:06:02;;;;;;;12.30;4.20;;;;;;;5.15;68.56;99057.77;108134;1281;22073;-78
2022/01/30 02:08:48;;;;;;;11.60;3.40;;;;;;;5.16;68.45;99057.61;108280;1276;23133;-78
2022/01/30 02:11:34;;;;;;;14.20;4.10;;;;;;;5.15;68.21;99054.93;108617;1276;22974;-78
2022/01/30 02:14:24;;;;;;;11.30;4.20;;;;;;;5.13;68.13;99054.09;107696;1279;606989;-79
2022/01/30 02:26:14;;;;;;;13.20;4.50;;;;;;;5.14;67.60;99029.90;108439;1276;22986;-79
2022/01/30 02:28:57;;;;;;;;;;;;;;;;;;;;;
2022/01/30 02:31:37;;;;;;;16.40;4.40;;;;;;;5.17;67.15;99026.16;108510;1273;22099;-78
2022/01/30 02:34:25;;;;;;;15.30;4.00;;;;;;;5.16;66.85;99036.05;108626;1270;22052;-79
2022/01/30 02:37:07;;;;;;;13.00;3.90;;;;;;;5.16;66.75;99022.02;109033;1270;22748;-79
2022/01/30 02:39:50;;;;;;;11.80;4.20;;;;;;;5.15;66.59;99024.60;108998;1270;23639;-79
2022/01/30 02:42:31;;;;;;;10.20;4.20;;;;;;;5.16;66.51;99023.27;108904;1270;21989;-79
2022/01/30 02:45:26;;;;;;;11.10;3.80;;;;;;;5.18;66.54;99024.65;109061;1270;23719;-79
2022/01/30 02:53:40;;;;;;;13.10;4.00;;;;;;;5.00;66.49;99017.64;108866;1273;22064;-78
2022/01/30 02:56:51;;;;;;;11.50;3.40;;;;;;;4.90;66.67;99008.06;108991;1266;22033;-78
2022/01/30 02:59:27;;;;;;;14.50;4.40;;;;;;;4.84;66.88;99000.54;109180;1267;21989;-78
2022/01/30 03:02:07;;;;;;;12.10;4.00;;;;;;;4.81;67.07;99002.77;109236;1267;23687;-79
2022/01/30 03:04:47;;;;;;;11.70;4.20;;;;;;;4.81;67.30;99000.02;109055;1270;22001;-79
2022/01/30 03:07:31;;;;;;;;;;;;;;;;;;;;;
2022/01/30 03:10:14;;;;;;;12.50;4.00;;;;;;;4.79;67.21;98993.47;108704;1273;22059;-78
2022/01/30 03:12:54;;;;;;;8.70;4.10;;;;;;;4.77;67.29;98993.70;108815;1273;24440;-80
2022/01/30 03:15:48;;;;;;;12.80;3.60;;;;;;;4.76;67.36;98982.77;108772;1272;21959;-79
2022/01/30 03:18:48;;;;;;;16.60;3.80;;;;;;;4.76;67.34;98979.05;108749;1273;21994;-79
2022/01/30 03:21:52;;;;;;;14.20;4.80;;;;;;;4.75;67.23;98983.73;108661;1273;22504;-78
2022/01/30 03:24:35;;;;;;;11.80;3.70;;;;;;;4.76;67.17;98970.06;109107;1264;23702;-79
2022/01/30 03:27:44;;;;;;;;;;;;;;;;;;;;;
2022/01/30 03:30:29;;;;;;;13.90;4.20;;;;;;;4.80;66.90;98940.95;109776;1263;22006;-79
2022/01/30 03:33:29;;;;;;;16.20;5.00;;;;;;;4.83;66.81;98935.94;109757;1264;23839;-79
2022/01/30 03:36:18;;;;;;;16.10;5.30;;;;;;;4.83;66.60;98934.37;109470;1263;22029;-79
2022/01/30 03:38:52;;;;;;;15.60;4.70;;;;;;;4.85;66.59;98927.70;109065;1267;21997;-79
2022/01/30 03:41:34;;;;;;;;;;;;;;;4.89;66.47;98938.75;109245;1267;21992;-79
2022/01/30 03:44:09;;;;;;;12.60;3.40;;;;;;;4.89;66.23;98942.27;109282;1267;22000;-79
2022/01/30 03:46:53;;;;;;;11.90;4.10;;;;;;;4.92;66.02;98935.96;108903;1270;21997;-78
2022/01/30 03:49:43;;;;;;;14.90;4.70;;;;;;;4.97;65.80;98947.91;108793;1270;21994;-78
2022/01/30 03:52:52;;;;;;;17.90;5.50;;;;;;;4.96;65.45;98942.85;108731;1276;22098;-78
2022/01/30 03:55:44;;;;;;;;;;;;;;;;;;;;;
2022/01/30 03:58:44;;;;;;;14.50;5.10;;;;;;;4.84;65.25;98955.88;108495;1274;22913;-78
2022/01/30 04:01:32;;;;;;;10.20;3.60;;;;;;;4.79;65.38;98960.09;108739;1276;23167;-80
2022/01/30 04:04:13;;;;;;;15.10;3.70;;;;;;;4.78;65.56;98948.67;108555;1273;22009;-78
2022/01/30 04:06:44;;;;;;;14.10;4.00;;;;;;;4.78;65.66;98947.10;108604;1273;22158;-79
2022/01/30 04:09:37;;;;;;;12.70;4.30;;;;;;;4.78;65.72;98939.81;108787;1273;22090;-78
2022/01/30 04:12:34;;;;;;;10.00;3.40;;;;;;;4.79;65.97;98935.56;108883;1266;22351;-77
2022/01/30 04:15:12;;;;;;;17.00;4.10;;;;;;;4.76;65.92;98930.13;108836;1270;21987;-77
2022/01/30 04:18:00;;;;;;;15.20;4.00;;;;;;;4.74;66.02;98926.44;108532;1273;23720;-78
2022/01/30 04:20:51;;;;;;;10.60;3.90;;;;;;;4.72;66.13;98923.36;108684;1270;22440;-80
2022/01/30 04:23:51;;;;;;;11.50;3.40;;;;;;;4.71;66.26;98921.70;108734;1270;22682;-78
2022/01/30 04:27:03;;;;;;;12.50;3.80;;;;;;;4.72;66.20;98911.47;108600;1270;23710;-78
2022/01/30 04:30:22;;;;;;;12.00;3.70;;;;;;;4.77;66.15;98911.16;109022;1270;22004;-82
2022/01/30 04:33:31;;;;;;;;;;;;;;;;;;;;;
2022/01/30 04:36:43;;;;;;;;;;;;;;;;;;;;;
2022/01/30 04:40:43;;;;;;;11.00;3.20;;;;;;;4.83;65.06;98904.91;109156;1267;22761;-78
2022/01/30 04:56:58;;;;;;;13.00;3.90;;;;;;;4.82;64.22;98935.06;108905;1267;23612;-77
2022/01/30 05:00:22;;;;;;;10.60;2.90;;;;;;;4.79;64.20;98934.09;109192;1267;22752;-78
2022/01/30 05:03:35;;;;;;;7.90;2.90;;;;;;;4.74;64.19;98926.44;108988;1267;21991;-78
2022/01/30 05:06:32;;;;;;;12.00;3.30;;;;;;;4.66;64.49;98925.60;109155;1266;21978;-77
2022/01/30 05:09:31;;;;;;;9.70;3.90;;;;;;;4.58;64.99;98916.63;109126;1267;21972;-77
2022/01/30 05:12:18;;;;;;;12.80;3.90;;;;;;;4.51;65.48;98908.00;108979;1267;22010;-77
2022/01/30 05:15:20;;;;;;;;;;;;;;;;;;;;;
2022/01/30 05:18:33;;;;;;;7.80;3.10;;;;;;;4.18;66.29;98915.64;109684;1261;24329;-78
2022/01/30 05:21:51;;;;;;;9.70;2.80;;;;;;;4.01;66.85;98934.23;109805;1261;23036;-77
2022/01/30 05:25:19;;;;;;;7.20;2.60;;;;;;;3.91;67.36;98931.09;109149;1263;24307;-78
2022/01/30 05:28:49;;;;;;;7.10;2.80;;;;;;;3.81;68.05;98918.19;108622;1275;23055;-78
2022/01/30 05:31:45;;;;;;;7.30;3.30;;;;;;;3.73;68.47;98891.45;108475;1276;21994;-77
2022/01/30 05:34:56;;;;;;;8.20;4.00;;;;;;;3.69;69.00;98876.28;108299;1276;24284;-77
2022/01/30 05:37:49;;;;;;;11.80;3.50;;;;;;;3.67;69.43;98867.95;108408;1279;22062;-77
2022/01/30 05:40:41;;;;;;;10.50;3.50;;;;;;;3.69;69.81;98867.70;108414;1276;21989;-77
2022/01/30 05:43:41;;;;;;;11.80;4.20;;;;;;;3.75;69.99;98858.14;108073;1282;22013;-77
2022/01/30 05:46:35;;;;;;;14.80;4.50;;;;;;;3.82;70.09;98853.27;108005;1285;23018;-78
2022/01/30 05:49:32;;;;;;;12.70;4.10;;;;;;;3.91;70.01;98852.35;107802;1285;22001;-76
2022/01/30 05:52:33;;;;;;;10.10;4.00;;;;;;;3.99;69.92;98846.39;107317;1288;23742;-80
2022/01/30 05:55:31;;;;;;;7.70;3.20;;;;;;;4.08;69.70;98847.39;107777;1282;22001;-77
2022/01/30 05:58:34;;;;;;;16.00;4.90;;;;;;;4.14;69.36;98837.33;108012;1282;22122;-77
2022/01/30 06:01:30;;;;;;;12.40;4.20;;;;;;;4.22;69.01;98827.36;108503;1273;21995;-78
2022/01/30 06:04:22;;;;;;;11.60;3.80;;;;;;;4.26;68.56;98816.06;108471;1273;23670;-78
2022/01/30 06:06:54;;;;;;;12.10;4.00;;;;;;;4.28;68.33;98807.42;108444;1277;22061;-78
2022/01/30 06:09:27;;;;;;;13.10;3.80;;;;;;;4.29;68.05;98799.34;108157;1276;22058;-77
2022/01/30 06:11:58;;;;;;;8.40;3.50;;;;;;;4.28;67.97;98797.89;108829;1273;23113;-77
2022/01/30 06:14:32;;;;;;;16.90;4.00;;;;;;;4.27;67.93;98789.92;108585;1273;22013;-76
2022/01/30 06:17:18;;;;;;;12.10;4.10;;;;;;;4.24;67.75;98793.52;108658;1273;21997;-78
2022/01/30 06:19:59;;;;;;;11.30;3.50;;;;;;;4.24;67.69;98793.87;108454;1276;22005;-78
2022/01/30 06:22:48;;;;;;;8.30;3.30;;;;;;;4.28;67.62;98797.40;108659;1270;22801;-78
2022/01/30 06:25:39;;;;;;;8.60;3.60;;;;;;;4.32;67.49;98783.48;109270;1267;22030;-77
2022/01/30 06:28:44;;;;;;;12.10;3.80;;;;;;;4.38;67.29;98781.77;108875;1270;22055;-77
2022/01/30 06:31:44;;;;;;;9.20;3.90;;;;;;;4.44;67.03;98775.25;108723;1270;22847;-77
2022/01/30 06:34:34;;;;;;;15.70;4.00;;;;;;;4.50;66.84;98769.52;108511;1275;23056;-76
2022/01/30 06:37:24;;;;;;;10.90;4.30;;;;;;;4.52;66.51;98766.38;108472;1270;21985;-77
2022/01/30 06:40:05;;;;;;;8.70;3.90;;;;;;;4.54;66.35;98780.91;108832;1270;21990;-77
2022/01/30 06:42:59;;;;;;;10.60;4.60;;;;;;;4.57;66.09;98758.84;109011;1270;23765;-76
2022/01/30 06:45:55;;;;;;;11.30;4.20;;;;;;;4.59;65.96;98746.21;108897;1264;21982;-76
2022/01/30 06:48:40;;;;;;;11.50;4.40;;;;;;;4.62;65.84;98755.63;108919;1267;21952;-76
2022/01/30 06:51:39;;;;;;;11.50;3.70;;;;;;;4.64;65.61;98764.67;108962;1267;22081;-77
2022/01/30 06:54:58;;;;;;;18.00;4.30;;;;;;;4.63;65.47;98757.96;109259;1264;23618;-79
2022/01/30 06:57:51;;;;;;;11.60;3.90;;;;;;;4.63;65.23;98744.69;109254;1264;22013;-77
2022/01/30 07:00:52;;;;;;;12.40;3.80;;;;;;;4.65;65.15;98747.60;109371;1264;23069;-78
2022/01/30 07:04:08;;;;;;;10.50;3.90;;;;;;;4.67;65.12;98752.27;109297;1264;23075;-78
2022/01/30 07:07:17;;;;;;;16.10;5.10;;;;;;;4.69;65.07;98750.25;109149;1264;23036;-77
2022/01/30 07:09:48;;;;;;;14.90;3.80;;;;;;;4.71;64.90;98751.89;108790;1270;22304;-78
2022/01/30 07:12:37;;;;;;;;;;;;;;;;;;;;;
2022/01/30 07:15:22;;;;;;;11.60;3.90;;;;;;;4.67;64.69;98760.80;108364;1279;22164;-78
2022/01/30 07:18:08;;;;;;;16.40;4.60;;;;;;;4.66;64.87;98750.44;108354;1279;22166;-77
2022/01/30 07:20:40;;;;;;;10.30;4.10;;;;;;;4.67;64.88;98751.45;108349;1279;24600;-77
2022/01/30 07:23:34;;;;;;;11.20;4.30;;;;;;;4.67;64.97;98764.65;108389;1279;23721;-77
2022/01/30 07:26:20;;;;;;;;;;;;;;;;;;;;;
2022/01/30 07:28:59;;;;;;;11.30;4.60;;;;;;;4.68;64.94;98758.92;108473;1279;23730;-78
2022/01/30 07:31:37;;;;;;;11.90;5.20;;;;;;;4.65;65.12;98744.14;108417;1279;23869;-77
2022/01/30 07:34:11;;;;;;;13.00;3.70;;;;;;;4.61;65.12;98741.23;108542;1270;22843;-78
2022/01/30 07:36:46;;;;;;;10.80;4.20;;;;;;;4.58;65.25;98748.05;108948;1267;24421;-78
2022/01/30 07:39:29;;;;;;;10.20;3.60;;;;;;;4.59;65.41;98750.27;109201;1264;23758;-77
2022/01/30 07:42:26;;;;;;;;;;;;;;;;;;;;;
2022/01/30 07:45:04;;;;;;;14.20;4.40;;;;;;;4.59;65.67;98762.23;109041;1268;22135;-79
2022/01/30 07:48:19;;;;;;;11.90;4.30;;;;;;;4.55;65.81;98772.13;108782;1270;22013;-79
2022/01/30 07:51:03;;;;;;;20.20;4.70;;;;;;;4.50;65.95;98770.23;108867;1269;22008;-78
2022/01/30 07:53:36;;;;;;;17.10;5.00;;;;;;;4.45;66.22;98772.42;108569;1271;22201;-78
2022/01/30 07:56:13;;;;;;;10.80;4.10;;;;;;;4.43;66.38;98776.02;108531;1270;21992;-78
2022/01/30 07:58:57;;;;;;;12.40;5.10;;;;;;;4.41;66.51;98789.70;108544;1271;22122;-78
2022/01/30 08:01:37;;;;;;;10.30;3.80;;;;;;;4.39;66.81;98792.45;108626;1270;22416;-78
2022/01/30 08:04:22;;;;;;;9.20;3.80;;;;;;;4.38;67.09;98784.90;108471;1276;23638;-79
2022/01/30 08:07:01;;;;;;;10.30;3.80;;;;;;;4.39;67.35;98786.20;108492;1275;22009;-79
2022/01/30 08:09:38;;;;;;;11.50;4.70;;;;;;;4.38;67.39;98792.59;108336;1272;23716;-78
2022/01/30 08:12:15;;;;;;;14.70;5.10;;;;;;;4.31;67.61;98789.35;108562;1273;23622;-76
2022/01/30 08:14:54;;;;;;;10.10;4.70;;;;;;;4.21;67.80;98838.99;108533;1273;22988;-78
2022/01/30 08:17:35;;;;;;;10.10;4.30;;;;;;;4.14;68.11;98847.42;108551;1273;22851;-77
2022/01/30 08:20:11;;;;;;;14.00;3.90;;;;;;;4.08;68.31;98872.98;108760;1273;21985;-77
2022/01/30 08:22:51;;;;;;;12.00;4.30;;;;;;;4.03;68.56;98864.68;108759;1270;21972;-78
2022/01/30 08:25:24;;;;;;;12.20;5.20;;;;;;;4.01;68.90;98870.45;109320;1270;21988;-78
2022/01/30 08:28:07;;;;;;;10.10;4.00;;;;;;;3.97;69.19;98864.77;109279;1264;23770;-78
2022/01/30 08:30:45;;;;;;;13.70;5.10;;;;;;;3.93;69.49;98861.73;109608;1261;23603;-77
2022/01/30 08:33:25;;;;;;;12.90;5.30;;;;;;;3.91;69.82;98852.05;109722;1261;23647;-77
2022/01/30 08:36:07;;;;;;;;;;;;;;;;;;;;;
2022/01/30 08:38:44;;;;;;;9.70;3.20;;;;;;;3.91;70.45;98866.77;109329;1263;21987;-78
2022/01/30 08:41:19;;;;;;;14.50;4.00;;;;;;;3.93;70.69;98882.59;109370;1264;22988;-78
2022/01/30 08:43:51;;;;;;;9.90;4.10;;;;;;;3.95;70.94;98898.79;109233;1264;22012;-77
2022/01/30 08:46:28;;;;;;;9.10;4.00;;;;;;;4.00;71.06;98910.79;109421;1265;23679;-78
2022/01/30 08:49:03;;;;;;;11.50;4.50;;;;;;;4.06;71.19;98915.90;109095;1264;23727;-78
2022/01/30 08:51:33;;;;;;;7.40;3.70;;;;;;;4.14;71.28;98923.05;108897;1270;22489;-77
2022/01/30 08:54:12;;;;;;;9.80;3.90;;;;;;;4.22;71.21;98923.80;108940;1268;24308;-77
2022/01/30 08:56:44;;;;;;;10.10;4.10;;;;;;;4.23;71.00;98931.53;108732;1270;23664;-77
2022/01/30 08:59:20;;;;;;;12.40;4.60;;;;;;;4.27;71.18;98927.20;108676;1270;23660;-77
2022/01/30 09:01:51;;;;;;;12.30;5.10;;;;;;;4.42;71.85;98933.38;108378;1276;22084;-77
2022/01/30 09:04:21;;;;;;;12.10;5.10;;;;;;;4.54;71.44;98933.45;108447;1276;22179;-78
2022/01/30 09:06:50;;;;;;;11.40;5.00;;;;;;;4.52;70.75;98934.56;108289;1279;22454;-78
2022/01/30 09:09:27;;;;;;;14.80;6.30;;;;;;;4.42;70.52;98945.89;108179;1277;22006;-79
2022/01/30 09:11:59;;;;;;;10.90;4.50;;;;;;;4.31;70.52;98940.42;108353;1276;22053;-79
2022/01/30 09:14:38;;;;;;;11.10;4.80;;;;;;;4.21;70.68;98937.31;108079;1276;23718;-77
2022/01/30 09:17:15;;;;;;;11.90;5.70;;;;;;;4.12;70.84;98939.82;108417;1278;23411;-77
2022/01/30 09:19:54;;;;;;;14.80;6.00;;;;;;;4.03;71.20;98947.73;108478;1273;23052;-78
2022/01/30 09:22:24;;;;;;;15.80;5.50;;;;;;;3.97;71.61;98939.00;108507;1272;21992;-79
2022/01/30 09:24:53;;;;;;;17.50;6.30;;;;;;;3.93;71.93;98951.44;108620;1267;22001;-78
2022/01/30 09:27:25;;;;;;;12.60;6.10;;;;;;;3.92;72.13;98940.56;109128;1267;24273;-78
2022/01/30 09:30:01;;;;;;;18.80;6.30;;;;;;;3.93;72.32;98937.98;108954;1270;22079;-78
2022/01/30 09:32:30;;;;;;;15.20;5.80;;;;;;;3.96;72.61;98936.27;108976;1267;23622;-77
2022/01/30 09:35:04;;;;;;;16.40;6.20;;;;;;;4.00;72.67;98943.68;109247;1265;22107;-78
2022/01/30 09:37:41;;;;;;;13.50;5.30;;;;;;;4.03;72.74;98940.97;109219;1267;23073;-83
2022/01/30 09:40:19;;;;;;;21.00;6.50;;;;;;;4.12;73.10;98935.34;109360;1267;22008;-82
2022/01/30 09:43:02;;;;;;;12.70;5.30;;;;;;;4.28;73.15;98925.23;109392;1267;21979;-83
2022/01/30 09:45:48;;;;;;;;;;;;;;;;;;;;;
2022/01/30 09:48:33;;;;;;;23.30;7.20;;;;;;;4.54;72.44;98932.43;109636;1264;22108;-82
2022/01/30 09:51:11;;;;;;;18.00;5.50;;;;;;;4.63;72.21;98934.23;109843;1264;22068;-82
2022/01/30 09:53:44;;;;;;;13.90;5.30;;;;;;;4.72;71.88;98929.25;109859;1264;21989;-82
2022/01/30 09:56:19;;;;;;;14.80;6.60;;;;;;;4.80;71.56;98937.98;109514;1267;23025;-82
2022/01/30 09:59:04;;;;;;;25.60;7.50;;;;;;;4.87;71.10;98942.48;109454;1267;22002;-83
2022/01/30 10:01:42;;;;;;;18.30;7.80;;;;;;;4.95;70.93;98940.96;109510;1267;21983;-82
2022/01/30 10:04:44;;;;;;;15.30;6.60;;;;;;;5.00;70.54;98943.18;109507;1264;22040;-82
2022/01/30 10:07:59;;;;;;;26.40;7.90;;;;;;;5.03;70.20;98939.84;109258;1265;22246;-82
2022/01/30 10:10:34;;;;;;;17.10;7.00;;;;;;;5.06;69.99;98947.30;109422;1264;21985;-77
2022/01/30 10:13:14;;;;;;;27.10;8.50;;;;;;;5.06;69.59;98946.73;109211;1267;23631;-78
2022/01/30 10:16:04;;;;;;;17.90;6.60;;;;;;;4.99;69.26;98943.09;109380;1263;21989;-78
2022/01/30 10:18:48;;;;;;;15.20;6.50;;;;;;;4.89;69.05;98951.35;109236;1263;23616;-77
2022/01/30 10:21:21;;;;;;;18.40;6.40;;;;;;;4.79;69.08;98952.10;109305;1261;23689;-77
2022/01/30 10:23:50;;;;;;;18.50;6.00;;;;;;;4.71;69.26;98958.00;109372;1264;22157;-77
2022/01/30 10:26:33;;;;;;;19.40;7.30;;;;;;;4.66;69.39;98975.10;109257;1265;23097;-78
2022/01/30 10:29:27;;;;;;;17.80;6.60;;;;;;;4.59;69.57;98981.95;109243;1264;24543;-78
2022/01/30 10:32:07;;;;;;;15.10;5.80;;;;;;;4.51;69.73;98990.09;108897;1268;21997;-78
2022/01/30 10:34:39;;;;;;;18.40;7.60;;;;;;;4.41;70.02;99005.29;108821;1270;23082;-77
2022/01/30 10:37:19;;;;;;;18.70;7.00;;;;;;;4.28;70.29;99004.34;108558;1271;21993;-78
2022/01/30 10:39:58;;;;;;;16.60;6.80;;;;;;;4.19;70.60;99002.88;108642;1270;21994;-77
2022/01/30 10:42:38;;;;;;;19.00;8.40;;;;;;;4.13;70.82;99010.67;108594;1270;23082;-77
2022/01/30 10:45:33;;;;;;;25.90;9.30;;;;;;;4.04;71.28;99014.67;108485;1276;22055;-77
2022/01/30 10:48:18;;;;;;;16.00;7.40;;;;;;;4.02;71.60;99019.63;108275;1279;23871;-78
2022/01/30 10:50:53;;;;;;;17.20;6.60;;;;;;;4.00;71.86;99020.50;108044;1282;23055;-78
2022/01/30 10:53:28;;;;;;;18.00;7.10;;;;;;;4.01;72.17;99022.36;108064;1282;22065;-78
2022/01/30 10:56:01;;;;;;;23.00;7.20;;;;;;;4.00;72.37;99033.60;108107;1278;23896;-78
2022/01/30 10:58:30;;;;;;;20.10;8.60;;;;;;;3.99;72.45;99039.60;108370;1279;22008;-79
2022/01/30 11:01:07;;;;;;;22.50;8.20;;;;;;;3.98;72.66;99034.99;108345;1278;22033;-78
2022/01/30 11:03:51;;;;;;;22.50;8.20;;;;;;;3.99;72.79;99052.17;108021;1282;22207;-78
2022/01/30 11:06:43;;;;;;;20.10;8.90;;;;;;;4.01;72.85;99042.35;108264;1276;22002;-78
2022/01/30 11:09:28;;;;;;;22.70;8.50;;;;;;;4.01;73.06;99036.14;108644;1267;21979;-78
2022/01/30 11:12:30;;;;;;;17.40;7.50;;;;;;;4.00;73.21;99052.19;109061;1267;21985;-77
2022/01/30 11:15:34;;;;;;;15.00;7.80;;;;;;;4.01;73.35;99051.79;109088;1267;23619;-77
2022/01/30 11:18:07;;;;;;;22.40;8.10;;;;;;;4.00;73.48;99059.50;108984;1267;23150;-78
2022/01/30 11:20:39;;;;;;;21.20;8.70;;;;;;;4.01;73.54;99065.73;109199;1266;22765;-77
2022/01/30 11:23:11;;;;;;;17.20;7.10;;;;;;;4.02;73.57;99065.94;109332;1261;21987;-78
2022/01/30 11:25:44;;;;;;;25.00;9.20;;;;;;;4.05;73.69;99079.48;109656;1261;22723;-77
2022/01/30 11:28:33;;;;;;;19.20;8.20;;;;;;;4.06;73.80;99095.43;109662;1260;22926;-78
2022/01/30 11:31:19;;;;;;;21.30;8.80;;;;;;;4.06;73.92;99097.09;109272;1265;24911;-77
2022/01/30 11:33:57;;;;;;;30.70;10.40;;;;;;;4.10;73.92;99097.23;108884;1270;21993;-77
2022/01/30 11:36:37;;;;;;;27.20;10.60;;;;;;;4.10;74.03;99109.73;108933;1270;21993;-77
2022/01/30 11:39:15;;;;;;;24.40;9.50;;;;;;;4.10;73.98;99112.73;108887;1270;21979;-77
2022/01/30 11:42:41;;;;;;;21.90;9.00;;;;;;;4.08;74.09;99120.89;108712;1271;23791;-77
2022/01/30 11:45:24;;;;;;;27.90;8.90;;;;;;;4.06;74.18;99129.30;108165;1282;22017;-79
2022/01/30 11:48:15;;;;;;;22.60;8.30;;;;;;;4.06;74.36;99133.33;107605;1288;22004;-78
2022/01/30 11:50:45;;;;;;;34.90;9.70;;;;;;;4.07;74.49;99138.65;107910;1285;22012;-78
2022/01/30 11:53:29;;;;;;;29.30;10.20;;;;;;;4.11;74.58;99136.45;107696;1285;23693;-77
2022/01/30 11:56:01;;;;;;;27.80;10.30;;;;;;;4.16;74.52;99141.04;107568;1288;22051;-78
2022/01/30 11:58:30;;;;;;;23.30;9.10;;;;;;;4.19;74.60;99143.96;107352;1291;22088;-77
2022/01/30 12:01:27;;;;;;;26.80;9.20;;;;;;;4.23;74.59;99148.79;107596;1288;24783;-78
2022/01/30 12:04:10;;;;;;;25.00;10.60;;;;;;;4.29;74.55;99155.59;108108;1282;22005;-79
2022/01/30 12:06:50;;;;;;;19.50;7.60;;;;;;;4.34;74.58;99164.26;108217;1276;22789;-78
2022/01/30 12:09:27;;;;;;;17.80;8.30;;;;;;;4.40;74.34;99171.34;108561;1276;22027;-79
2022/01/30 12:12:05;;;;;;;23.20;9.30;;;;;;;4.45;74.15;99178.11;108176;1279;22017;-79
2022/01/30 12:14:42;;;;;;;29.50;9.10;;;;;;;4.51;73.99;99180.81;108596;1271;23006;-78
2022/01/30 12:17:12;;;;;;;26.40;9.10;;;;;;;4.59;73.93;99190.13;109198;1264;22099;-76
2022/01/30 12:19:45;;;;;;;23.90;7.90;;;;;;;4.61;73.42;99190.95;108927;1270;22933;-77
2022/01/30 12:22:17;;;;;;;23.40;8.80;;;;;;;4.63;73.26;99189.59;109032;1270;22001;-77
2022/01/30 12:25:12;;;;;;;16.80;7.50;;;;;;;4.63;72.87;99194.75;108862;1270;22065;-78
2022/01/30 12:28:04;;;;;;;24.90;8.20;;;;;;;4.62;72.70;99185.27;108873;1270;22064;-79
2022/01/30 12:30:57;;;;;;;24.10;8.90;;;;;;;4.64;72.56;99199.04;109216;1267;23619;-79
2022/01/30 12:33:38;;;;;;;24.70;9.30;;;;;;;4.68;72.53;99202.78;108472;1273;23061;-79
2022/01/30 12:36:19;;;;;;;23.00;7.80;;;;;;;4.71;72.30;99205.56;108694;1273;22012;-78
2022/01/30 12:38:57;;;;;;;22.60;7.50;;;;;;;4.76;71.99;99206.86;108551;1275;22004;-78
2022/01/30 12:41:51;;;;;;;23.30;8.40;;;;;;;4.79;71.35;99215.11;108386;1275;21997;-78
2022/01/30 12:44:29;;;;;;;23.90;7.70;;;;;;;4.86;71.23;99211.90;108416;1275;22017;-77
2022/01/30 12:47:03;;;;;;;23.00;8.00;;;;;;;4.96;70.88;99220.70;108109;1278;22010;-78
2022/01/30 13:02:57;;;;;;;19.50;8.10;;;;;;;6.38;64.16;99232.04;107302;1288;548758;-79
2022/01/30 13:05:48;;;;;;;22.30;7.70;;;;;;;6.61;61.12;99254.01;108733;1262;421444;-77
2022/01/30 13:08:26;;;;;;;27.40;9.30;;;;;;;6.22;62.15;99265.16;109451;1262;23576;-82
2022/01/30 13:11:24;;;;;;;21.20;7.50;;;;;;;5.99;62.71;99270.94;109272;1262;23020;-80
2022/01/30 13:14:05;;;;;;;23.10;8.50;;;;;;;5.85;63.18;99269.64;109578;1262;21975;-79
2022/01/30 13:16:51;;;;;;;24.90;8.00;;;;;;;5.76;63.51;99276.68;108928;1266;23047;-77
2022/01/30 13:19:42;;;;;;;22.50;8.70;;;;;;;5.72;63.69;99284.45;109403;1266;23429;-79
2022/01/30 13:22:36;;;;;;;22.60;8.20;;;;;;;5.71;63.66;99281.40;108970;1269;23050;-76
2022/01/30 13:25:20;;;;;;;24.20;7.70;;;;;;;5.72;63.63;99294.80;109100;1266;23805;-76
2022/01/30 13:27:53;;;;;;;22.90;8.30;;;;;;;5.70;63.58;99305.30;109091;1266;23002;-76
2022/01/30 13:30:39;;;;;;;26.90;8.40;;;;;;;5.68;63.50;99302.20;109070;1267;22000;-76
2022/01/30 13:33:19;;;;;;;21.30;7.20;;;;;;;5.66;63.47;99310.05;109941;1260;22843;-76
2022/01/30 13:35:51;;;;;;;21.90;6.90;;;;;;;5.64;63.18;99316.92;109946;1258;22106;-77
2022/01/30 13:38:25;;;;;;;24.70;7.80;;;;;;;5.64;63.22;99324.61;109979;1258;23788;-77
2022/01/30 13:41:04;;;;;;;24.10;8.10;;;;;;;5.64;63.04;99330.31;110207;1258;22828;-77
2022/01/30 13:43:37;;;;;;;21.80;8.80;;;;;;;5.65;63.08;99335.66;109970;1259;22078;-76
2022/01/30 13:49:10;;;;;;;20.10;7.80;;;;;;;5.68;62.95;99346.02;109328;1264;21972;-76
2022/01/30 13:51:42;;;;;;;30.10;8.90;;;;;;;5.69;62.94;99352.60;109705;1262;21986;-77
2022/01/30 13:54:32;;;;;;;23.90;8.50;;;;;;;5.69;62.93;99349.28;109984;1255;23027;-77
2022/01/30 13:57:08;;;;;;;18.50;8.40;;;;;;;5.67;62.87;99358.89;110078;1255;23057;-76
2022/01/30 13:59:51;;;;;;;;;;;;;;;;;;;;;
2022/01/30 14:02:31;;;;;;;16.40;6.80;;;;;;;5.63;62.65;99369.39;110096;1257;22050;-77
2022/01/30 14:05:35;;;;;;;21.50;7.00;;;;;;;5.62;62.52;99370.21;110400;1250;22034;-78
2022/01/30 14:08:13;;;;;;;14.40;5.50;;;;;;;5.60;62.52;99377.21;110664;1250;21976;-77
2022/01/30 14:11:02;;;;;;;13.30;4.80;;;;;;;5.61;62.49;99386.45;110841;1252;23031;-76
2022/01/30 14:13:57;;;;;;;;;;;;;;;;;;;;;
2022/01/30 14:16:52;;;;;;;16.30;5.20;;;;;;;5.65;62.30;99394.19;110139;1258;22433;-77
2022/01/30 14:19:35;;;;;;;18.60;5.90;;;;;;;5.66;62.21;99398.98;110270;1258;23309;-76
2022/01/30 14:22:26;;;;;;;20.00;6.50;;;;;;;5.65;61.91;99400.12;109337;1263;21981;-77
2022/01/30 14:25:06;;;;;;;18.50;6.00;;;;;;;5.62;61.89;99409.13;108934;1267;21972;-77
2022/01/30 14:27:42;;;;;;;22.80;6.90;;;;;;;5.62;61.92;99412.98;108909;1267;22022;-76
2022/01/30 14:30:18;;;;;;;24.90;6.40;;;;;;;5.61;61.80;99417.23;108497;1273;23618;-77
2022/01/30 14:32:52;;;;;;;20.30;7.20;;;;;;;5.61;61.85;99420.61;108516;1273;21998;-77
2022/01/30 14:35:29;;;;;;;17.90;4.90;;;;;;;5.61;61.69;99418.70;108904;1267;22091;-76
2022/01/30 14:38:10;;;;;;;21.80;7.80;;;;;;;5.63;61.70;99435.12;108825;1272;23514;-79
2022/01/30 14:40:40;;;;;;;26.20;9.20;;;;;;;5.64;61.51;99438.30;108324;1276;22021;-78
2022/01/30 14:43:12;;;;;;;20.70;8.90;;;;;;;5.64;61.48;99443.55;108777;1269;21982;-77